Time;durP1;ratioP1;P1;durP2;ratioP2;P2;SDS_P1;SDS_P2;PMS_P1;PMS_P2;Temp;Humidity;BMP_temperature;BMP_pressure;BME280_temperature;BME280_humidity;BME280_pressure;Samples;Min_cycle;Max_cycle;Signal;HPM_P1;HPM_P2
2022/09/23 00:00:07;;;;;;;2.75;2.25;;;19.50;99.90;;;;;;4145650;28;20628;-74
2022/09/23 00:02:10;;;;;;;3.45;2.47;;;19.40;99.90;;;;;;4133963;28;20213;-74
2022/09/23 00:04:12;;;;;;;3.50;2.30;;;19.40;99.90;;;;;;4145716;28;20982;-75
2022/09/23 00:06:19;;;;;;;2.90;2.15;;;19.40;99.90;;;;;;4145169;28;20625;-74
2022/09/23 00:08:23;;;;;;;3.30;2.40;;;19.40;99.90;;;;;;4145128;28;20267;-74
2022/09/23 00:10:29;;;;;;;3.53;2.15;;;19.40;99.90;;;;;;4145189;28;20283;-74
2022/09/23 00:12:32;;;;;;;3.40;2.00;;;19.40;99.90;;;;;;4144758;28;20213;-74
2022/09/23 00:14:36;;;;;;;2.30;2.00;;;19.40;99.90;;;;;;4145146;28;20225;-74
2022/09/23 00:16:38;;;;;;;3.22;2.55;;;19.40;99.90;;;;;;4144765;28;20334;-74
2022/09/23 00:18:40;;;;;;;3.55;2.40;;;19.40;99.90;;;;;;4144568;28;20279;-75
2022/09/23 00:20:43;;;;;;;3.45;2.28;;;19.40;99.90;;;;;;4144665;28;20275;-74
2022/09/23 00:22:45;;;;;;;3.55;2.50;;;19.40;99.90;;;;;;4144176;28;20391;-74
2022/09/23 00:24:49;;;;;;;3.05;2.30;;;19.40;99.90;;;;;;4144516;28;20245;-75
2022/09/23 00:26:51;;;;;;;3.42;2.70;;;19.40;99.90;;;;;;4145054;28;20631;-74
2022/09/23 00:28:53;;;;;;;3.65;2.50;;;19.40;99.90;;;;;;4145157;28;20279;-74
2022/09/23 00:30:56;;;;;;;4.32;2.40;;;19.40;99.90;;;;;;4144848;28;20295;-74
2022/09/23 00:32:58;;;;;;;2.90;2.30;;;19.40;99.90;;;;;;4144878;28;20221;-75
2022/09/23 00:35:02;;;;;;;4.15;2.65;;;19.40;99.90;;;;;;4145232;28;20216;-74
2022/09/23 00:37:05;;;;;;;3.22;2.33;;;19.40;99.90;;;;;;4144513;28;20828;-74
2022/09/23 00:39:08;;;;;;;4.00;2.60;;;19.40;99.90;;;;;;4145284;28;20674;-74
2022/09/23 00:41:14;;;;;;;3.38;2.60;;;19.40;99.90;;;;;;4148601;28;20217;-75
2022/09/23 00:43:17;;;;;;;3.42;2.30;;;19.40;99.90;;;;;;4149024;28;20601;-74
2022/09/23 00:45:19;;;;;;;2.88;2.30;;;19.40;99.90;;;;;;4146143;28;20209;-74
2022/09/23 00:47:29;;;;;;;3.28;2.20;;;19.40;99.90;;;;;;4147920;28;20267;-75
2022/09/23 00:49:31;;;;;;;3.85;2.60;;;19.30;99.90;;;;;;4147490;28;20318;-74
2022/09/23 00:51:39;;;;;;;3.40;2.33;;;19.40;99.90;;;;;;4146988;28;20244;-74
2022/09/23 00:53:42;;;;;;;2.78;2.33;;;19.40;99.90;;;;;;4145751;28;20220;-75
2022/09/23 00:55:48;;;;;;;3.47;2.38;;;19.40;99.90;;;;;;4146986;28;20732;-74
2022/09/23 00:57:54;;;;;;;4.70;2.83;;;19.30;99.90;;;;;;4145511;28;20259;-74
2022/09/23 00:59:56;;;;;;;4.07;2.90;;;19.40;99.90;;;;;;4146680;28;20287;-74
2022/09/23 01:02:02;;;;;;;3.20;2.80;;;19.40;99.90;;;;;;4146800;28;20312;-75
2022/09/23 01:04:05;;;;;;;3.58;2.55;;;19.30;99.90;;;;;;4146904;28;20295;-74
2022/09/23 01:06:08;;;;;;;4.18;2.65;;;19.40;99.90;;;;;;4146515;28;20244;-74
2022/09/23 01:08:12;;;;;;;4.05;2.70;;;19.40;99.90;;;;;;4146695;28;20222;-75
2022/09/23 01:10:17;;;;;;;3.22;2.88;;;19.30;99.90;;;;;;4146401;28;20267;-74
2022/09/23 01:12:36;;;;;;;3.35;2.50;;;19.40;99.90;;;;;;4144663;28;20268;-74
2022/09/23 01:14:47;;;;;;;2.58;2.38;;;19.40;99.90;;;;;;4146388;28;20217;-74
2022/09/23 01:16:55;;;;;;;5.10;2.95;;;19.30;99.90;;;;;;4146505;28;20295;-74
2022/09/23 01:19:09;;;;;;;3.75;2.70;;;19.30;99.90;;;;;;4146533;28;20283;-74
2022/09/23 01:21:18;;;;;;;4.00;2.80;;;19.30;99.90;;;;;;4146604;28;20282;-75
2022/09/23 01:23:50;;;;;;;3.42;2.70;;;19.30;99.90;;;;;;4144131;28;20666;-74
2022/09/23 01:26:11;;;;;;;3.35;2.72;;;19.30;99.90;;;;;;4144162;28;20251;-75
2022/09/23 01:28:34;;;;;;;4.20;2.70;;;19.30;99.90;;;;;;4145539;28;20255;-74
2022/09/23 01:30:48;;;;;;;3.55;2.55;;;19.30;99.90;;;;;;4146451;28;20225;-75
2022/09/23 01:33:07;;;;;;;3.35;2.80;;;19.30;99.90;;;;;;4146233;28;20712;-75
2022/09/23 01:35:21;;;;;;;3.25;2.65;;;19.30;99.90;;;;;;4145918;28;20213;-75
2022/09/23 01:37:28;;;;;;;3.85;2.80;;;19.30;99.90;;;;;;4146480;28;20263;-75
2022/09/23 01:39:36;;;;;;;3.88;2.80;;;19.30;99.90;;;;;;4146236;28;20661;-75
2022/09/23 01:41:53;;;;;;;4.45;2.85;;;19.30;99.90;;;;;;4145947;28;20298;-74
2022/09/23 01:44:03;;;;;;;3.45;2.83;;;19.30;99.90;;;;;;4145950;28;20233;-74
2022/09/23 01:46:14;;;;;;;5.07;2.85;;;19.30;99.90;;;;;;4145824;28;20217;-74
2022/09/23 01:48:22;;;;;;;3.83;2.90;;;19.30;99.90;;;;;;4145753;28;20221;-74
2022/09/23 01:52:48;;;;;;;3.28;2.53;;;19.30;99.90;;;;;;4146010;28;20204;-74
2022/09/23 01:54:56;;;;;;;3.40;2.70;;;19.30;99.90;;;;;;4145665;28;20209;-74
2022/09/23 01:57:03;;;;;;;3.80;3.03;;;19.30;99.90;;;;;;4145776;28;20673;-74
2022/09/23 01:59:12;;;;;;;3.58;2.90;;;19.30;99.90;;;;;;4146075;28;20609;-75
2022/09/23 02:01:21;;;;;;;3.22;2.72;;;19.30;99.90;;;;;;4145877;28;20224;-75
2022/09/23 02:03:28;;;;;;;3.88;2.72;;;19.30;99.90;;;;;;4146128;28;20272;-74
2022/09/23 02:05:37;;;;;;;4.20;2.58;;;19.30;99.90;;;;;;4145191;28;20244;-74
2022/09/23 02:07:43;;;;;;;3.60;2.72;;;19.30;99.90;;;;;;4146091;28;20229;-74
2022/09/23 02:10:00;;;;;;;4.25;2.78;;;19.30;99.90;;;;;;4145481;28;20216;-75
2022/09/23 02:12:08;;;;;;;4.05;3.10;;;19.30;99.90;;;;;;4145274;28;20259;-74
2022/09/23 02:14:15;;;;;;;4.60;2.78;;;19.30;99.90;;;;;;4145367;28;20697;-74
2022/09/23 02:16:25;;;;;;;4.15;3.03;;;19.30;99.90;;;;;;4145323;28;20271;-74
2022/09/23 02:18:31;;;;;;;3.47;2.83;;;19.30;99.90;;;;;;4144477;28;20228;-74
2022/09/23 02:20:37;;;;;;;4.32;3.28;;;19.30;99.90;;;;;;4145753;28;20295;-74
2022/09/23 02:22:43;;;;;;;4.97;3.00;;;19.30;99.90;;;;;;4145057;28;20217;-74
2022/09/23 02:24:46;;;;;;;4.10;2.72;;;19.30;99.90;;;;;;4145180;28;20287;-74
2022/09/23 02:26:53;;;;;;;4.75;2.97;;;19.30;99.90;;;;;;4145441;28;20281;-75
2022/09/23 02:29:06;;;;;;;3.65;2.42;;;19.30;99.90;;;;;;4145824;28;20221;-74
2022/09/23 02:31:16;;;;;;;3.92;3.00;;;19.30;99.90;;;;;;4145341;28;20263;-74
2022/09/23 02:33:24;;;;;;;4.03;2.95;;;19.20;99.90;;;;;;4145318;28;20228;-74
2022/09/23 02:35:31;;;;;;;3.78;2.92;;;19.30;99.90;;;;;;4145147;28;20208;-74
2022/09/23 02:37:42;;;;;;;3.20;2.70;;;19.30;99.90;;;;;;4145325;28;20278;-74
2022/09/23 02:39:54;;;;;;;4.03;2.63;;;19.20;99.90;;;;;;4144455;28;20261;-74
2022/09/23 02:42:02;;;;;;;5.03;3.17;;;19.20;99.90;;;;;;4145436;28;20225;-74
2022/09/23 02:44:08;;;;;;;4.78;2.88;;;19.20;99.90;;;;;;4145289;28;20688;-74
2022/09/23 02:46:11;;;;;;;3.40;3.00;;;19.30;99.90;;;;;;4144336;28;20217;-74
2022/09/23 02:48:18;;;;;;;3.65;2.83;;;19.30;99.90;;;;;;4144983;28;20217;-75
2022/09/23 02:50:22;;;;;;;3.58;2.90;;;19.30;99.90;;;;;;4145035;28;20236;-74
2022/09/23 02:52:25;;;;;;;4.03;2.95;;;19.20;99.90;;;;;;4143102;28;20217;-75
2022/09/23 02:54:28;;;;;;;3.53;2.95;;;19.20;99.90;;;;;;4144989;28;20632;-74
2022/09/23 02:56:31;;;;;;;3.22;2.72;;;19.30;99.90;;;;;;4144911;28;20310;-74
2022/09/23 02:58:33;;;;;;;5.15;3.03;;;19.20;99.90;;;;;;4144918;28;20217;-74
2022/09/23 03:00:46;;;;;;;3.70;3.10;;;19.20;99.90;;;;;;4145303;28;20221;-75
2022/09/23 03:03:06;;;;;;;3.35;2.95;;;19.20;99.90;;;;;;4144192;28;20615;-74
2022/09/23 03:05:18;;;;;;;3.92;3.08;;;19.20;99.90;;;;;;4144218;28;20279;-75
2022/09/23 03:07:31;;;;;;;4.05;2.97;;;19.30;99.90;;;;;;4144819;28;20287;-74
2022/09/23 03:09:38;;;;;;;3.88;3.10;;;19.20;99.90;;;;;;4145296;28;20225;-74
2022/09/23 03:11:48;;;;;;;4.85;3.00;;;19.20;99.90;;;;;;4144802;28;20224;-75
2022/09/23 03:14:03;;;;;;;4.95;3.10;;;19.20;99.90;;;;;;4144970;28;20216;-74
2022/09/23 03:16:16;;;;;;;4.18;2.90;;;19.20;99.90;;;;;;4144784;28;20213;-74
2022/09/23 03:18:24;;;;;;;3.53;2.70;;;19.30;99.90;;;;;;4144836;28;20224;-75
2022/09/23 03:20:34;;;;;;;5.25;3.08;;;19.20;99.90;;;;;;4144859;28;20920;-75
2022/09/23 03:22:42;;;;;;;4.95;2.92;;;19.20;99.90;;;;;;4142642;28;20270;-75
2022/09/23 03:24:46;;;;;;;5.13;3.28;;;19.20;99.90;;;;;;4144248;28;20220;-74
2022/09/23 03:26:49;;;;;;;4.25;2.83;;;19.20;99.90;;;;;;4144433;28;20275;-75
2022/09/23 03:28:53;;;;;;;4.03;3.10;;;19.20;99.90;;;;;;4144392;28;20988;-75
2022/09/23 03:30:58;;;;;;;4.07;3.08;;;19.20;99.90;;;;;;4144873;28;20221;-74
2022/09/23 03:33:03;;;;;;;4.85;3.25;;;19.20;99.90;;;;;;4143243;28;20984;-74
2022/09/23 03:35:06;;;;;;;4.28;3.22;;;19.20;99.90;;;;;;4144409;28;20221;-74
2022/09/23 03:37:16;;;;;;;3.67;2.92;;;19.20;99.90;;;;;;4144823;28;20636;-74
2022/09/23 03:39:34;;;;;;;4.15;2.90;;;19.20;99.90;;;;;;4144207;28;20279;-75
2022/09/23 03:41:42;;;;;;;3.83;2.97;;;19.20;99.90;;;;;;4144380;28;20244;-74
2022/09/23 03:43:45;;;;;;;3.53;3.22;;;19.20;99.90;;;;;;4143850;28;20255;-74
2022/09/23 03:45:47;;;;;;;4.20;3.38;;;19.20;99.90;;;;;;4144084;28;20237;-75
2022/09/23 03:47:49;;;;;;;3.60;2.92;;;19.20;99.90;;;;;;4144348;28;20279;-74
2022/09/23 03:49:52;;;;;;;4.38;2.83;;;19.20;99.90;;;;;;4144330;28;20652;-75
2022/09/23 03:51:55;;;;;;;3.75;3.20;;;19.20;99.90;;;;;;4144321;28;20649;-74
2022/09/23 03:53:57;;;;;;;4.38;3.38;;;19.20;99.90;;;;;;4143965;28;20248;-74
2022/09/23 03:56:02;;;;;;;4.35;3.00;;;19.20;99.90;;;;;;4143570;28;20299;-74
2022/09/23 03:58:04;;;;;;;4.10;3.20;;;19.20;99.90;;;;;;4143760;28;20213;-74
2022/09/23 04:00:08;;;;;;;5.07;3.30;;;19.20;99.90;;;;;;4144376;28;20295;-74
2022/09/23 04:02:10;;;;;;;3.65;2.85;;;19.20;99.90;;;;;;4143790;28;20333;-74
2022/09/23 04:04:12;;;;;;;4.00;3.13;;;19.20;99.90;;;;;;4144698;28;20984;-75
2022/09/23 04:06:15;;;;;;;3.65;2.75;;;19.20;99.90;;;;;;4144411;28;20634;-74
2022/09/23 04:08:17;;;;;;;4.18;3.25;;;19.20;99.90;;;;;;4143080;28;20300;-74
2022/09/23 04:10:20;;;;;;;4.18;3.17;;;19.20;99.90;;;;;;4143779;28;20217;-74
2022/09/23 04:12:23;;;;;;;3.30;2.70;;;19.20;99.90;;;;;;4143862;28;20217;-74
2022/09/23 04:14:26;;;;;;;4.93;2.95;;;19.20;99.90;;;;;;4142926;28;20225;-74
2022/09/23 04:16:28;;;;;;;3.38;2.90;;;19.20;99.90;;;;;;4144133;28;20255;-74
2022/09/23 04:18:31;;;;;;;3.15;2.58;;;19.20;99.90;;;;;;4144296;28;20631;-74
2022/09/23 04:20:33;;;;;;;3.90;3.15;;;19.20;99.90;;;;;;4142734;28;20310;-75
2022/09/23 04:22:37;;;;;;;4.75;3.20;;;19.20;99.90;;;;;;4143155;28;20225;-75
2022/09/23 04:24:39;;;;;;;3.35;3.05;;;19.20;99.90;;;;;;4143646;28;20661;-74
2022/09/23 04:26:42;;;;;;;4.55;2.95;;;19.20;99.90;;;;;;4143601;28;20232;-74
2022/09/23 04:28:46;;;;;;;4.20;3.00;;;19.20;99.90;;;;;;4144146;28;20224;-74
2022/09/23 04:30:48;;;;;;;4.85;3.47;;;19.20;99.90;;;;;;4143547;28;20283;-74
2022/09/23 04:32:52;;;;;;;4.03;3.00;;;19.20;99.90;;;;;;4142714;28;20557;-75
2022/09/23 04:34:54;;;;;;;3.35;2.90;;;19.20;99.90;;;;;;4143636;28;20267;-74
2022/09/23 04:36:56;;;;;;;3.58;3.10;;;19.20;99.90;;;;;;4143709;28;20217;-74
2022/09/23 04:38:59;;;;;;;3.85;3.10;;;19.20;99.90;;;;;;4144178;28;20287;-74
2022/09/23 04:41:01;;;;;;;3.90;2.67;;;19.20;99.90;;;;;;4143742;28;20566;-74
2022/09/23 04:43:04;;;;;;;4.63;3.22;;;19.20;99.90;;;;;;4144016;28;20225;-75
2022/09/23 04:45:08;;;;;;;4.30;2.97;;;19.10;99.90;;;;;;4143743;28;20209;-74
2022/09/23 04:47:11;;;;;;;4.43;2.92;;;19.10;99.90;;;;;;4143425;28;20709;-75
2022/09/23 04:49:13;;;;;;;3.78;3.10;;;19.10;99.90;;;;;;4143409;28;20228;-74
2022/09/23 04:51:17;;;;;;;8.55;2.97;;;19.20;99.90;;;;;;4143731;28;20244;-75
2022/09/23 04:53:20;;;;;;;6.03;3.50;;;19.20;99.90;;;;;;4143389;28;20229;-75
2022/09/23 04:55:23;;;;;;;2.85;2.55;;;19.10;99.90;;;;;;4143690;28;20272;-74
2022/09/23 04:57:25;;;;;;;3.58;3.10;;;19.20;99.90;;;;;;4144003;28;20263;-74
2022/09/23 04:59:27;;;;;;;4.13;2.95;;;19.10;99.90;;;;;;4143961;28;20221;-74
2022/09/23 05:01:33;;;;;;;4.50;3.10;;;19.10;99.90;;;;;;4143520;28;20225;-75
2022/09/23 05:03:35;;;;;;;3.92;3.00;;;19.10;99.90;;;;;;4143461;28;20217;-74
2022/09/23 05:05:37;;;;;;;3.75;3.20;;;19.10;99.90;;;;;;4143421;28;20290;-74
2022/09/23 05:07:40;;;;;;;4.55;3.20;;;19.20;99.90;;;;;;4143445;28;20229;-75
2022/09/23 05:09:42;;;;;;;4.30;3.15;;;19.20;99.90;;;;;;4143627;28;20271;-74
2022/09/23 05:11:45;;;;;;;5.22;3.50;;;19.20;99.90;;;;;;4143224;28;20987;-75
2022/09/23 05:13:48;;;;;;;3.40;2.90;;;19.20;99.90;;;;;;4143803;28;20622;-75
2022/09/23 05:15:56;;;;;;;4.85;3.25;;;19.10;99.90;;;;;;4143601;28;20279;-74
2022/09/23 05:18:01;;;;;;;6.35;3.22;;;19.20;99.90;;;;;;4143379;28;20626;-74
2022/09/23 05:20:04;;;;;;;4.28;2.92;;;19.10;99.90;;;;;;4143462;28;20267;-75
2022/09/23 05:22:06;;;;;;;3.15;2.80;;;19.10;99.90;;;;;;4142817;28;20283;-74
2022/09/23 05:24:09;;;;;;;4.88;3.30;;;19.20;99.90;;;;;;4143481;28;20853;-74
2022/09/23 05:26:13;;;;;;;3.80;2.80;;;19.10;99.90;;;;;;4145009;28;20229;-74
2022/09/23 05:28:18;;;;;;;4.22;2.75;;;19.20;99.90;;;;;;4146218;28;20244;-74
2022/09/23 05:30:21;;;;;;;4.80;3.08;;;19.20;99.90;;;;;;4146714;28;20224;-74
2022/09/23 05:32:25;;;;;;;3.80;3.35;;;19.10;99.90;;;;;;4147143;28;20666;-75
2022/09/23 05:34:28;;;;;;;4.95;3.17;;;19.10;99.90;;;;;;4147011;28;21157;-75
2022/09/23 05:36:34;;;;;;;4.80;3.45;;;19.10;99.90;;;;;;4145254;28;20275;-74
2022/09/23 05:38:36;;;;;;;5.05;3.33;;;19.20;99.90;;;;;;4147327;28;20263;-73
2022/09/23 05:40:38;;;;;;;4.20;3.10;;;19.20;99.90;;;;;;4154132;28;20267;-74
2022/09/23 05:42:41;;;;;;;5.93;3.33;;;19.20;99.90;;;;;;4149225;28;20736;-74
2022/09/23 05:44:43;;;;;;;6.25;3.30;;;19.10;99.90;;;;;;4148794;28;20631;-74
2022/09/23 05:46:45;;;;;;;4.32;3.33;;;19.10;99.90;;;;;;4147524;28;20232;-74
2022/09/23 05:48:48;;;;;;;5.20;3.15;;;19.10;99.90;;;;;;4146801;28;20323;-74
2022/09/23 05:50:52;;;;;;;5.00;3.65;;;19.10;99.90;;;;;;4146334;28;20303;-74
2022/09/23 05:52:55;;;;;;;4.68;3.20;;;19.10;99.90;;;;;;4146287;28;20217;-74
2022/09/23 05:54:57;;;;;;;3.78;2.92;;;19.10;99.90;;;;;;4145552;28;20264;-74
2022/09/23 05:56:59;;;;;;;3.75;3.00;;;19.10;99.90;;;;;;4145945;28;20217;-74
2022/09/23 05:59:04;;;;;;;5.95;3.58;;;19.10;99.90;;;;;;4146111;28;20757;-74
2022/09/23 06:01:10;;;;;;;6.65;3.22;;;19.20;99.90;;;;;;4146693;28;20252;-74
2022/09/23 06:03:13;;;;;;;4.47;3.00;;;19.10;99.90;;;;;;4145808;28;20268;-74
2022/09/23 06:05:16;;;;;;;3.58;2.97;;;19.10;99.90;;;;;;4147049;28;20585;-74
2022/09/23 06:07:19;;;;;;;4.88;3.67;;;19.10;99.90;;;;;;4147227;28;20760;-74
2022/09/23 06:09:22;;;;;;;3.95;3.13;;;19.10;99.90;;;;;;4147012;28;20221;-74
2022/09/23 06:11:24;;;;;;;4.68;3.33;;;19.10;99.90;;;;;;4147366;28;20221;-75
2022/09/23 06:13:27;;;;;;;5.60;3.22;;;19.10;99.90;;;;;;4145176;28;20267;-74
2022/09/23 06:15:29;;;;;;;4.38;3.22;;;19.10;99.90;;;;;;4147185;28;20213;-74
2022/09/23 06:17:31;;;;;;;4.70;3.30;;;19.20;99.90;;;;;;4147175;28;20282;-75
2022/09/23 06:19:33;;;;;;;4.68;3.65;;;19.10;99.90;;;;;;4143594;28;20218;-74
2022/09/23 06:21:37;;;;;;;7.00;3.17;;;19.10;99.90;;;;;;4146066;28;20275;-75
2022/09/23 06:23:41;;;;;;;3.75;3.15;;;19.10;99.90;;;;;;4147003;28;20291;-74
2022/09/23 06:25:43;;;;;;;3.30;2.70;;;19.10;99.90;;;;;;4146623;28;20213;-74
2022/09/23 06:27:53;;;;;;;3.63;3.10;;;19.20;99.90;;;;;;4146567;28;20245;-74
2022/09/23 06:29:56;;;;;;;4.63;3.25;;;19.10;99.90;;;;;;4146524;28;20279;-74
2022/09/23 06:31:58;;;;;;;3.92;3.13;;;19.10;99.90;;;;;;4146480;28;20225;-74
2022/09/23 06:34:01;;;;;;;6.32;3.22;;;19.10;99.90;;;;;;4146652;28;20213;-74
2022/09/23 06:36:05;;;;;;;4.10;3.00;;;19.10;99.90;;;;;;4146873;28;20224;-74
2022/09/23 06:38:07;;;;;;;4.43;3.40;;;19.10;99.90;;;;;;4145433;28;20263;-74
2022/09/23 06:40:13;;;;;;;5.10;3.50;;;19.20;99.90;;;;;;4146628;28;20260;-75
2022/09/23 06:42:15;;;;;;;4.28;3.30;;;19.20;99.90;;;;;;4146325;28;20209;-74
2022/09/23 06:44:18;;;;;;;4.80;3.63;;;19.10;99.90;;;;;;4146433;28;20712;-74
2022/09/23 06:46:20;;;;;;;3.50;3.13;;;19.10;99.90;;;;;;4146879;28;20209;-74
2022/09/23 06:48:23;;;;;;;4.95;3.53;;;19.10;99.90;;;;;;4146586;28;20225;-74
2022/09/23 06:50:27;;;;;;;4.45;3.38;;;19.20;99.90;;;;;;4143883;28;20236;-74
2022/09/23 06:52:30;;;;;;;5.55;3.72;;;19.20;99.90;;;;;;4137193;28;20283;-74
2022/09/23 06:54:32;;;;;;;5.10;3.42;;;19.20;99.90;;;;;;4146417;28;20221;-74
2022/09/23 06:56:36;;;;;;;5.45;3.67;;;19.20;99.90;;;;;;4141695;28;20225;-74
2022/09/23 06:58:38;;;;;;;4.03;3.50;;;19.20;99.90;;;;;;4143048;28;20225;-74
2022/09/23 07:00:41;;;;;;;4.55;3.25;;;19.20;99.90;;;;;;4145726;28;20221;-74
2022/09/23 07:02:43;;;;;;;5.15;3.45;;;19.20;99.90;;;;;;4139090;28;20648;-74
2022/09/23 07:04:45;;;;;;;6.10;3.60;;;19.20;99.90;;;;;;4145780;28;20619;-74
2022/09/23 07:06:48;;;;;;;5.78;4.22;;;19.20;99.90;;;;;;4137255;28;20225;-75
2022/09/23 07:08:52;;;;;;;6.32;3.17;;;19.20;99.90;;;;;;4143034;28;20213;-76
2022/09/23 07:10:55;;;;;;;4.55;3.33;;;19.20;99.90;;;;;;4145015;28;20214;-75
2022/09/23 07:13:03;;;;;;;5.90;3.80;;;19.20;99.90;;;;;;4139030;28;20275;-74
2022/09/23 07:15:08;;;;;;;7.70;3.95;;;19.20;99.90;;;;;;4142288;28;20261;-73
2022/09/23 07:17:11;;;;;;;5.60;3.97;;;19.20;99.90;;;;;;4140289;28;20251;-74
2022/09/23 07:19:13;;;;;;;10.30;3.70;;;19.30;99.90;;;;;;4140883;28;20658;-74
2022/09/23 07:21:17;;;;;;;6.10;3.55;;;19.30;99.90;;;;;;4144564;28;20267;-72
2022/09/23 07:23:20;;;;;;;5.78;4.00;;;19.40;99.90;;;;;;4143914;28;20221;-71
2022/09/23 07:25:22;;;;;;;6.20;4.18;;;19.40;99.90;;;;;;4146627;28;20229;-72
2022/09/23 07:27:26;;;;;;;6.97;3.80;;;19.40;99.90;;;;;;4141567;28;20237;-72
2022/09/23 07:29:30;;;;;;;7.55;3.85;;;19.50;99.90;;;;;;4140988;28;20271;-72
2022/09/23 07:31:33;;;;;;;6.00;3.95;;;19.50;99.90;;;;;;4137319;28;20221;-73
2022/09/23 07:33:37;;;;;;;5.53;3.65;;;19.50;99.90;;;;;;4141196;28;20283;-73
2022/09/23 07:35:40;;;;;;;6.30;3.90;;;19.50;99.90;;;;;;4142251;28;20251;-73
2022/09/23 07:37:43;;;;;;;6.22;3.50;;;19.50;99.90;;;;;;4135757;28;20892;-73
2022/09/23 07:39:46;;;;;;;7.63;4.50;;;19.60;99.90;;;;;;4138375;28;20217;-73
2022/09/23 07:41:48;;;;;;;6.30;4.22;;;19.60;99.90;;;;;;4142516;28;20250;-73
2022/09/23 07:43:54;;;;;;;6.20;4.00;;;19.70;99.90;;;;;;4139051;28;20267;-73
2022/09/23 07:45:58;;;;;;;5.90;4.15;;;19.60;99.90;;;;;;4139778;28;20686;-73
2022/09/23 07:48:01;;;;;;;8.93;4.30;;;19.50;99.90;;;;;;4142387;28;20964;-72
2022/09/23 07:50:03;;;;;;;6.15;3.53;;;19.60;99.90;;;;;;4136192;28;20238;-72
2022/09/23 07:52:06;;;;;;;5.25;3.53;;;19.70;99.90;;;;;;4143536;28;20276;-72
2022/09/23 07:54:12;;;;;;;6.40;4.20;;;19.70;99.90;;;;;;4142709;28;20220;-73
2022/09/23 07:56:14;;;;;;;7.35;4.07;;;19.70;99.90;;;;;;4137914;28;20487;-72
2022/09/23 07:58:16;;;;;;;5.55;4.22;;;19.70;99.90;;;;;;4138367;28;20248;-72
2022/09/23 08:00:19;;;;;;;7.72;4.63;;;19.70;99.90;;;;;;4141826;28;20812;-73
2022/09/23 08:02:23;;;;;;;6.60;4.32;;;19.80;99.90;;;;;;4139278;28;20670;-72
2022/09/23 08:04:28;;;;;;;8.20;4.30;;;19.80;99.90;;;;;;4142182;28;20217;-72
2022/09/23 08:06:31;;;;;;;11.13;4.28;;;19.80;99.90;;;;;;4139322;28;20225;-72
2022/09/23 08:08:34;;;;;;;12.80;4.78;;;19.80;99.90;;;;;;4142707;28;20228;-72
2022/09/23 08:10:36;;;;;;;6.30;3.92;;;19.90;99.90;;;;;;4138389;28;20300;-72
2022/09/23 08:12:38;;;;;;;7.18;4.10;;;19.90;99.90;;;;;;4141095;28;20593;-72
2022/09/23 08:14:41;;;;;;;9.20;4.28;;;19.90;99.90;;;;;;4136421;28;20260;-72
2022/09/23 08:16:45;;;;;;;6.38;4.20;;;19.90;99.90;;;;;;4133139;28;20424;-74
2022/09/23 08:18:49;;;;;;;7.30;4.50;;;19.80;99.90;;;;;;4139291;28;20271;-74
2022/09/23 08:20:52;;;;;;;8.15;4.30;;;19.80;99.90;;;;;;4138649;28;20217;-74
2022/09/23 08:22:54;;;;;;;8.23;4.07;;;19.90;99.90;;;;;;4137647;28;20226;-73
2022/09/23 08:24:57;;;;;;;14.25;4.65;;;19.90;99.90;;;;;;4139022;28;20217;-73
2022/09/23 08:26:59;;;;;;;8.30;4.38;;;19.90;99.90;;;;;;4137301;28;20255;-72
2022/09/23 08:29:01;;;;;;;6.13;4.47;;;20.00;99.90;;;;;;4130899;28;20240;-72
2022/09/23 08:31:04;;;;;;;8.05;4.65;;;20.00;99.90;;;;;;4140033;28;20683;-72
2022/09/23 08:33:07;;;;;;;5.93;4.55;;;20.00;99.90;;;;;;4138225;28;20230;-73
2022/09/23 08:35:11;;;;;;;8.73;4.38;;;20.00;99.90;;;;;;4139000;28;20638;-73
2022/09/23 08:37:13;;;;;;;9.02;4.60;;;20.00;99.90;;;;;;4131595;28;20745;-72
2022/09/23 08:39:16;;;;;;;8.10;4.82;;;20.00;99.90;;;;;;4138633;28;20339;-73
2022/09/23 08:41:25;;;;;;;7.82;4.70;;;20.10;99.90;;;;;;4140466;28;20275;-73
2022/09/23 08:43:29;;;;;;;8.55;4.50;;;20.00;99.90;;;;;;4142569;28;20288;-73
2022/09/23 08:45:33;;;;;;;6.85;4.70;;;20.10;99.90;;;;;;4142244;28;20279;-73
2022/09/23 08:47:44;;;;;;;6.95;4.40;;;20.10;99.90;;;;;;4141079;28;20221;-72
2022/09/23 08:49:55;;;;;;;9.50;4.82;;;20.20;99.90;;;;;;4137775;28;20229;-73
2022/09/23 08:52:05;;;;;;;7.65;4.70;;;20.10;99.90;;;;;;4131462;28;20220;-73
2022/09/23 08:54:10;;;;;;;7.40;4.65;;;20.10;99.90;;;;;;4139499;28;20244;-73
2022/09/23 08:56:15;;;;;;;6.60;4.53;;;20.10;99.90;;;;;;4137482;28;20213;-73
2022/09/23 08:58:29;;;;;;;7.85;4.78;;;20.20;99.90;;;;;;4138573;28;20287;-73
2022/09/23 09:00:39;;;;;;;6.88;4.80;;;20.20;99.90;;;;;;4139191;28;20263;-73
2022/09/23 09:02:41;;;;;;;6.22;4.10;;;20.20;99.90;;;;;;4144510;28;20220;-72
2022/09/23 09:04:48;;;;;;;9.30;4.70;;;20.20;99.90;;;;;;4145580;28;20271;-74
2022/09/23 09:06:54;;;;;;;7.72;3.97;;;20.20;99.90;;;;;;4144789;28;20296;-74
2022/09/23 09:09:00;;;;;;;7.13;4.15;;;20.20;99.90;;;;;;4146040;28;20241;-73
2022/09/23 09:11:04;;;;;;;8.25;4.13;;;20.30;99.90;;;;;;4142765;28;20631;-74
2022/09/23 09:13:19;;;;;;;7.97;4.63;;;20.20;99.90;;;;;;4147336;28;20264;-74
2022/09/23 09:15:25;;;;;;;7.72;4.93;;;20.20;99.90;;;;;;4142686;28;20264;-72
2022/09/23 09:17:37;;;;;;;6.03;3.92;;;20.30;99.90;;;;;;4143034;28;21097;-73
2022/09/23 09:19:56;;;;;;;8.45;4.28;;;20.30;99.90;;;;;;4144192;28;20288;-74
2022/09/23 09:22:00;;;;;;;8.48;4.53;;;20.30;99.90;;;;;;4142614;28;20685;-74
2022/09/23 09:24:12;;;;;;;8.68;4.15;;;20.30;99.90;;;;;;4142739;28;20725;-74
2022/09/23 09:26:19;;;;;;;8.35;4.18;;;20.40;99.90;;;;;;4141214;28;20212;-73
2022/09/23 09:28:26;;;;;;;8.07;4.30;;;20.30;99.90;;;;;;4145682;28;20648;-73
2022/09/23 09:30:28;;;;;;;9.93;4.53;;;20.30;99.90;;;;;;4145251;28;20256;-74
2022/09/23 09:32:46;;;;;;;7.07;4.40;;;20.30;99.90;;;;;;4140844;28;20225;-73
2022/09/23 09:34:54;;;;;;;6.82;4.43;;;20.30;99.90;;;;;;4140864;28;20360;-74
2022/09/23 09:37:04;;;;;;;6.75;3.90;;;20.30;99.90;;;;;;4137250;28;20255;-72
2022/09/23 09:39:12;;;;;;;8.80;4.22;;;20.40;99.90;;;;;;4137041;28;20457;-73
2022/09/23 09:41:20;;;;;;;7.40;4.60;;;20.40;99.90;;;;;;4144144;28;20262;-72
2022/09/23 09:43:22;;;;;;;6.63;4.47;;;20.30;99.90;;;;;;4144460;28;20220;-71
2022/09/23 09:45:43;;;;;;;5.97;4.10;;;20.40;99.90;;;;;;4144739;28;20321;-72
2022/09/23 09:47:51;;;;;;;10.50;4.25;;;20.40;99.90;;;;;;4144357;28;20221;-71
2022/09/23 09:49:59;;;;;;;6.28;4.00;;;20.40;99.90;;;;;;4138356;28;20597;-73
2022/09/23 09:52:21;;;;;;;7.93;4.30;;;20.30;99.90;;;;;;4143453;28;20671;-73
2022/09/23 09:54:25;;;;;;;7.50;4.38;;;20.30;99.90;;;;;;4142113;28;20259;-74
2022/09/23 09:56:33;;;;;;;7.22;4.43;;;20.40;99.90;;;;;;4144335;28;20263;-73
2022/09/23 09:58:44;;;;;;;6.95;4.10;;;20.40;99.90;;;;;;4139788;28;20263;-74
2022/09/23 10:00:49;;;;;;;5.88;3.88;;;20.40;99.90;;;;;;4140876;28;20249;-72
2022/09/23 10:02:53;;;;;;;6.72;3.60;;;20.40;99.90;;;;;;4144394;28;20213;-72
2022/09/23 10:04:59;;;;;;;8.88;4.32;;;20.40;99.90;;;;;;4141413;28;20280;-72
2022/09/23 10:07:06;;;;;;;10.20;4.20;;;20.40;99.90;;;;;;4140141;28;20265;-74
2022/09/23 10:09:15;;;;;;;6.55;4.32;;;20.40;99.90;;;;;;4140775;28;20233;-74
2022/09/23 10:11:19;;;;;;;6.13;4.38;;;20.40;99.90;;;;;;4145403;28;20275;-74
2022/09/23 10:13:23;;;;;;;6.93;4.05;;;20.40;99.90;;;;;;4145285;28;20260;-73
2022/09/23 10:15:29;;;;;;;6.28;4.07;;;20.40;99.90;;;;;;4143229;28;20213;-74
2022/09/23 10:17:34;;;;;;;5.68;3.80;;;20.40;99.90;;;;;;4144000;28;20639;-73
2022/09/23 10:19:38;;;;;;;7.55;4.38;;;20.40;99.90;;;;;;4142219;28;20213;-74
2022/09/23 10:21:42;;;;;;;7.50;4.15;;;20.40;99.90;;;;;;4138777;28;20365;-74
2022/09/23 10:23:46;;;;;;;6.43;3.72;;;20.40;99.90;;;;;;4139773;28;20674;-73
2022/09/23 10:25:56;;;;;;;7.18;4.13;;;20.40;99.90;;;;;;4140964;28;20268;-74
2022/09/23 10:28:33;;;;;;;5.13;3.83;;;20.40;99.90;;;;;;4140442;28;20225;-73
2022/09/23 10:30:37;;;;;;;6.72;3.90;;;20.40;99.90;;;;;;4142496;28;20209;-74
2022/09/23 10:32:44;;;;;;;4.88;3.55;;;20.40;99.90;;;;;;4144971;28;20895;-75
2022/09/23 10:34:51;;;;;;;5.80;3.88;;;20.30;99.90;;;;;;4142896;28;20287;-76
2022/09/23 10:37:01;;;;;;;6.35;4.03;;;20.40;99.90;;;;;;4141584;28;20252;-74
2022/09/23 10:48:58;;;;;;;5.43;3.45;;;20.60;99.90;;;;;;4133824;28;20670;-73
2022/09/23 10:51:03;;;;;;;7.75;4.35;;;20.50;99.90;;;;;;4124735;28;20218;-73
2022/09/23 10:53:14;;;;;;;7.22;3.90;;;20.50;99.90;;;;;;4120148;28;20281;-74
2022/09/23 10:55:27;;;;;;;8.30;3.72;;;20.50;99.90;;;;;;4120877;28;20264;-73
2022/09/23 10:57:44;;;;;;;8.25;4.50;;;20.50;99.90;;;;;;4122127;28;20221;-74
2022/09/23 10:59:56;;;;;;;7.30;4.05;;;20.50;99.90;;;;;;4123489;28;20268;-73
2022/09/23 11:02:18;;;;;;;5.88;3.80;;;20.60;99.90;;;;;;4122810;28;20221;-76
2022/09/23 11:04:54;;;;;;;7.00;4.20;;;20.60;99.90;;;;;;4120510;28;20384;-76